sensor_id;sensor_type;location;lat;lon;timestamp;pressure;altitude;pressure_sealevel;temperature;humidity
56630;BME280;42502;40.732;-74.254;2023-04-16T00:00:38;100241.00;;;31.09;32.83
56630;BME280;42502;40.732;-74.254;2023-04-16T00:02:39;100242.22;;;31.08;32.74
56630;BME280;42502;40.732;-74.254;2023-04-16T00:04:40;100242.66;;;31.06;32.70
56630;BME280;42502;40.732;-74.254;2023-04-16T00:06:41;100243.94;;;31.05;33.09
56630;BME280;42502;40.732;-74.254;2023-04-16T00:08:42;100237.84;;;31.03;33.25
56630;BME280;42502;40.732;-74.254;2023-04-16T00:10:43;100250.06;;;31.04;33.15
56630;BME280;42502;40.732;-74.254;2023-04-16T00:12:43;100241.56;;;31.00;33.28
56630;BME280;42502;40.732;-74.254;2023-04-16T00:14:44;100235.06;;;30.99;32.84
56630;BME280;42502;40.732;-74.254;2023-04-16T00:16:45;100226.50;;;30.99;33.45
56630;BME280;42502;40.732;-74.254;2023-04-16T00:18:46;100217.13;;;30.99;32.90
56630;BME280;42502;40.732;-74.254;2023-04-16T00:20:47;100204.94;;;30.98;33.28
56630;BME280;42502;40.732;-74.254;2023-04-16T00:22:49;100200.06;;;30.95;33.26
56630;BME280;42502;40.732;-74.254;2023-04-16T00:24:50;100189.91;;;30.94;33.41
56630;BME280;42502;40.732;-74.254;2023-04-16T00:26:51;100191.16;;;30.93;33.40
56630;BME280;42502;40.732;-74.254;2023-04-16T00:28:52;100189.19;;;30.90;33.38
56630;BME280;42502;40.732;-74.254;2023-04-16T00:30:53;100187.56;;;30.89;33.25
56630;BME280;42502;40.732;-74.254;2023-04-16T00:32:54;100181.50;;;30.87;33.41
56630;BME280;42502;40.732;-74.254;2023-04-16T00:34:55;100177.03;;;30.86;33.05
56630;BME280;42502;40.732;-74.254;2023-04-16T00:36:55;100166.88;;;30.85;32.97
56630;BME280;42502;40.732;-74.254;2023-04-16T00:38:56;100151.47;;;30.82;32.93
56630;BME280;42502;40.732;-74.254;2023-04-16T00:40:57;100149.06;;;30.81;32.91
56630;BME280;42502;40.732;-74.254;2023-04-16T00:42:58;100144.56;;;30.80;33.18
56630;BME280;42502;40.732;-74.254;2023-04-16T00:44:59;100155.19;;;30.79;33.48
56630;BME280;42502;40.732;-74.254;2023-04-16T00:47:00;100145.03;;;30.78;32.95
56630;BME280;42502;40.732;-74.254;2023-04-16T00:49:03;100141.81;;;30.76;33.31
56630;BME280;42502;40.732;-74.254;2023-04-16T00:51:04;100138.13;;;30.76;33.57
56630;BME280;42502;40.732;-74.254;2023-04-16T00:53:06;100132.88;;;30.74;33.39
56630;BME280;42502;40.732;-74.254;2023-04-16T00:55:07;100130.91;;;30.71;32.96
56630;BME280;42502;40.732;-74.254;2023-04-16T00:57:13;100134.56;;;30.72;33.09
56630;BME280;42502;40.732;-74.254;2023-04-16T00:59:14;100130.97;;;30.68;33.29
56630;BME280;42502;40.732;-74.254;2023-04-16T01:01:15;100139.97;;;30.66;33.33
56630;BME280;42502;40.732;-74.254;2023-04-16T01:03:16;100138.31;;;30.69;33.09
56630;BME280;42502;40.732;-74.254;2023-04-16T01:05:17;100137.91;;;30.67;33.54
56630;BME280;42502;40.732;-74.254;2023-04-16T01:07:18;100144.84;;;30.65;33.31
56630;BME280;42502;40.732;-74.254;2023-04-16T01:09:19;100150.19;;;30.63;33.54
56630;BME280;42502;40.732;-74.254;2023-04-16T01:11:19;100151.44;;;30.62;33.59
56630;BME280;42502;40.732;-74.254;2023-04-16T01:13:20;100148.22;;;30.60;33.15
56630;BME280;42502;40.732;-74.254;2023-04-16T01:15:21;100147.44;;;30.60;33.52
56630;BME280;42502;40.732;-74.254;2023-04-16T01:17:22;100152.31;;;30.59;33.06
56630;BME280;42502;40.732;-74.254;2023-04-16T01:19:23;100156.41;;;30.58;33.31
56630;BME280;42502;40.732;-74.254;2023-04-16T01:21:24;100151.16;;;30.57;33.16
56630;BME280;42502;40.732;-74.254;2023-04-16T01:23:25;100151.59;;;30.55;33.50
56630;BME280;42502;40.732;-74.254;2023-04-16T01:25:26;100162.59;;;30.53;33.16
56630;BME280;42502;40.732;-74.254;2023-04-16T01:27:27;100165.44;;;30.53;33.17
56630;BME280;42502;40.732;-74.254;2023-04-16T01:29:28;100154.13;;;30.50;33.18
56630;BME280;42502;40.732;-74.254;2023-04-16T01:31:29;100155.75;;;30.51;33.57
56630;BME280;42502;40.732;-74.254;2023-04-16T01:33:30;100156.97;;;30.50;33.54
56630;BME280;42502;40.732;-74.254;2023-04-16T01:35:30;100162.31;;;30.47;33.49
56630;BME280;42502;40.732;-74.254;2023-04-16T01:37:32;100160.72;;;30.46;33.22
56630;BME280;42502;40.732;-74.254;2023-04-16T01:39:32;100163.63;;;30.43;33.33
56630;BME280;42502;40.732;-74.254;2023-04-16T01:41:34;100179.47;;;30.44;33.06
56630;BME280;42502;40.732;-74.254;2023-04-16T01:43:35;100194.16;;;30.42;33.45
56630;BME280;42502;40.732;-74.254;2023-04-16T01:45:36;100186.88;;;30.41;33.17
56630;BME280;42502;40.732;-74.254;2023-04-16T01:47:37;100193.38;;;30.42;33.50
56630;BME280;42502;40.732;-74.254;2023-04-16T01:49:38;100177.22;;;30.32;33.60
56630;BME280;42502;40.732;-74.254;2023-04-16T01:51:38;100191.34;;;30.39;33.63
56630;BME280;42502;40.732;-74.254;2023-04-16T01:53:39;100187.31;;;30.36;33.27
56630;BME280;42502;40.732;-74.254;2023-04-16T01:55:40;100193.81;;;30.37;33.67
56630;BME280;42502;40.732;-74.254;2023-04-16T01:57:41;100204.84;;;30.35;33.57
56630;BME280;42502;40.732;-74.254;2023-04-16T01:59:42;100199.59;;;30.33;33.32
56630;BME280;42502;40.732;-74.254;2023-04-16T02:01:43;100189.41;;;30.32;33.37
56630;BME280;42502;40.732;-74.254;2023-04-16T02:03:44;100196.38;;;30.31;33.26
56630;BME280;42502;40.732;-74.254;2023-04-16T02:05:44;100202.50;;;30.29;33.82
56630;BME280;42502;40.732;-74.254;2023-04-16T02:07:46;100201.69;;;30.29;33.77
56630;BME280;42502;40.732;-74.254;2023-04-16T02:09:47;100200.88;;;30.28;33.29
56630;BME280;42502;40.732;-74.254;2023-04-16T02:11:50;100204.97;;;30.27;33.39
56630;BME280;42502;40.732;-74.254;2023-04-16T02:13:51;100201.75;;;30.25;33.34
56630;BME280;42502;40.732;-74.254;2023-04-16T02:15:52;100209.50;;;30.25;33.88
56630;BME280;42502;40.732;-74.254;2023-04-16T02:17:53;100196.56;;;30.20;33.68
56630;BME280;42502;40.732;-74.254;2023-04-16T02:19:56;100195.69;;;30.23;33.78
56630;BME280;42502;40.732;-74.254;2023-04-16T02:21:57;100193.75;;;30.17;33.75
56630;BME280;42502;40.732;-74.254;2023-04-16T02:23:57;100183.19;;;30.17;33.31
56630;BME280;42502;40.732;-74.254;2023-04-16T02:25:58;100185.16;;;30.20;33.49
56630;BME280;42502;40.732;-74.254;2023-04-16T02:28:00;100186.41;;;30.19;33.54
56630;BME280;42502;40.732;-74.254;2023-04-16T02:30:01;100170.53;;;30.18;33.71
56630;BME280;42502;40.732;-74.254;2023-04-16T02:32:04;100162.88;;;30.15;33.95
56630;BME280;42502;40.732;-74.254;2023-04-16T02:34:05;100152.34;;;30.12;33.75
56630;BME280;42502;40.732;-74.254;2023-04-16T02:36:06;100160.00;;;30.15;33.61
56630;BME280;42502;40.732;-74.254;2023-04-16T02:38:07;100145.06;;;30.11;34.01
56630;BME280;42502;40.732;-74.254;2023-04-16T02:40:09;100153.97;;;30.13;33.39
56630;BME280;42502;40.732;-74.254;2023-04-16T02:42:09;100153.97;;;30.13;33.93
56630;BME280;42502;40.732;-74.254;2023-04-16T02:44:10;100149.50;;;30.12;33.81
56630;BME280;42502;40.732;-74.254;2023-04-16T02:46:11;100149.13;;;30.10;33.44
56630;BME280;42502;40.732;-74.254;2023-04-16T02:48:12;100149.13;;;30.10;33.90
56630;BME280;42502;40.732;-74.254;2023-04-16T02:50:13;100146.72;;;30.08;33.61
56630;BME280;42502;40.732;-74.254;2023-04-16T02:52:14;100142.25;;;30.07;33.48
56630;BME280;42502;40.732;-74.254;2023-04-16T02:54:14;100141.88;;;30.05;33.94
56630;BME280;42502;40.732;-74.254;2023-04-16T02:56:18;100138.22;;;30.05;34.07
56630;BME280;42502;40.732;-74.254;2023-04-16T02:58:20;100129.66;;;30.05;33.61
56630;BME280;42502;40.732;-74.254;2023-04-16T03:00:21;100119.97;;;30.02;33.63
56630;BME280;42502;40.732;-74.254;2023-04-16T03:02:22;100116.28;;;30.02;33.62
56630;BME280;42502;40.732;-74.254;2023-04-16T03:04:22;100120.41;;;30.01;33.76
56630;BME280;42502;40.732;-74.254;2023-04-16T03:06:23;100110.25;;;30.00;34.18
56630;BME280;42502;40.732;-74.254;2023-04-16T03:08:25;100102.94;;;29.99;34.03
56630;BME280;42502;40.732;-74.254;2023-04-16T03:10:26;100107.03;;;29.98;33.68
56630;BME280;42502;40.732;-74.254;2023-04-16T03:12:27;100094.03;;;29.97;33.88
56630;BME280;42502;40.732;-74.254;2023-04-16T03:14:28;100090.38;;;29.96;34.17
56630;BME280;42502;40.732;-74.254;2023-04-16T03:16:29;100078.16;;;29.95;34.15
56630;BME280;42502;40.732;-74.254;2023-04-16T03:18:30;100077.38;;;29.95;34.23
56630;BME280;42502;40.732;-74.254;2023-04-16T03:20:31;100073.72;;;29.94;33.88
56630;BME280;42502;40.732;-74.254;2023-04-16T03:22:32;100072.13;;;29.93;34.34
56630;BME280;42502;40.732;-74.254;2023-04-16T03:24:33;100056.25;;;29.92;33.82
56630;BME280;42502;40.732;-74.254;2023-04-16T03:26:34;100058.31;;;29.92;34.29
56630;BME280;42502;40.732;-74.254;2023-04-16T03:28:35;100051.00;;;29.91;34.25
56630;BME280;42502;40.732;-74.254;2023-04-16T03:30:36;100045.31;;;29.91;33.68
56630;BME280;42502;40.732;-74.254;2023-04-16T03:32:37;100034.75;;;29.91;34.19
56630;BME280;42502;40.732;-74.254;2023-04-16T03:34:38;100033.91;;;29.91;33.59
56630;BME280;42502;40.732;-74.254;2023-04-16T03:36:39;100029.03;;;29.91;33.39
56630;BME280;42502;40.732;-74.254;2023-04-16T03:38:40;100027.44;;;29.90;33.46
56630;BME280;42502;40.732;-74.254;2023-04-16T03:40:41;100021.72;;;29.90;33.47
56630;BME280;42502;40.732;-74.254;2023-04-16T03:42:42;100022.97;;;29.89;33.41
56630;BME280;42502;40.732;-74.254;2023-04-16T03:44:43;100016.91;;;29.87;33.66
56630;BME280;42502;40.732;-74.254;2023-04-16T03:46:44;100023.81;;;29.86;33.31
56630;BME280;42502;40.732;-74.254;2023-04-16T03:48:44;100020.97;;;29.86;33.27
56630;BME280;42502;40.732;-74.254;2023-04-16T03:50:45;100023.91;;;29.83;33.22
56630;BME280;42502;40.732;-74.254;2023-04-16T03:52:49;100024.25;;;29.85;33.31
56630;BME280;42502;40.732;-74.254;2023-04-16T03:54:50;100012.09;;;29.84;32.97
56630;BME280;42502;40.732;-74.254;2023-04-16T03:56:51;100019.00;;;29.83;33.41
56630;BME280;42502;40.732;-74.254;2023-04-16T03:58:51;100021.06;;;29.83;32.85
56630;BME280;42502;40.732;-74.254;2023-04-16T04:00:52;100030.03;;;29.81;32.91
56630;BME280;42502;40.732;-74.254;2023-04-16T04:02:56;100023.56;;;29.81;33.20
56630;BME280;42502;40.732;-74.254;2023-04-16T04:04:57;100029.25;;;29.81;33.33
56630;BME280;42502;40.732;-74.254;2023-04-16T04:06:58;100032.50;;;29.79;33.05
56630;BME280;42502;40.732;-74.254;2023-04-16T04:08:59;100030.09;;;29.77;32.83
56630;BME280;42502;40.732;-74.254;2023-04-16T04:11:00;100034.16;;;29.76;32.86
56630;BME280;42502;40.732;-74.254;2023-04-16T04:13:04;100025.22;;;29.74;32.82
56630;BME280;42502;40.732;-74.254;2023-04-16T04:15:06;100022.38;;;29.74;32.69
56630;BME280;42502;40.732;-74.254;2023-04-16T04:17:07;100008.34;;;29.64;33.20
56630;BME280;42502;40.732;-74.254;2023-04-16T04:19:08;100013.91;;;29.71;33.09
56630;BME280;42502;40.732;-74.254;2023-04-16T04:21:09;100009.09;;;29.68;32.93
56630;BME280;42502;40.732;-74.254;2023-04-16T04:23:10;100002.16;;;29.69;32.79
56630;BME280;42502;40.732;-74.254;2023-04-16T04:25:11;100012.72;;;29.68;32.92
56630;BME280;42502;40.732;-74.254;2023-04-16T04:27:12;100015.22;;;29.66;33.11
56630;BME280;42502;40.732;-74.254;2023-04-16T04:29:13;100025.81;;;29.66;33.11
56630;BME280;42502;40.732;-74.254;2023-04-16T04:31:14;100027.03;;;29.65;32.60
56630;BME280;42502;40.732;-74.254;2023-04-16T04:33:14;100027.84;;;29.65;32.85
56630;BME280;42502;40.732;-74.254;2023-04-16T04:35:15;100031.13;;;29.64;32.81
56630;BME280;42502;40.732;-74.254;2023-04-16T04:37:16;100029.53;;;29.63;32.74
56630;BME280;42502;40.732;-74.254;2023-04-16T04:39:17;100034.41;;;29.62;32.87
56630;BME280;42502;40.732;-74.254;2023-04-16T04:41:20;100033.59;;;29.62;32.68
56630;BME280;42502;40.732;-74.254;2023-04-16T04:43:21;100049.06;;;29.60;32.68
56630;BME280;42502;40.732;-74.254;2023-04-16T04:45:22;100053.16;;;29.59;32.54
56630;BME280;42502;40.732;-74.254;2023-04-16T04:47:26;100068.63;;;29.58;32.65
56630;BME280;42502;40.732;-74.254;2023-04-16T04:49:27;100076.78;;;29.56;32.89
56630;BME280;42502;40.732;-74.254;2023-04-16T04:51:27;100080.06;;;29.55;32.63
56630;BME280;42502;40.732;-74.254;2023-04-16T04:53:28;100082.09;;;29.54;32.52
56630;BME280;42502;40.732;-74.254;2023-04-16T04:55:29;100081.28;;;29.54;32.77
56630;BME280;42502;40.732;-74.254;2023-04-16T04:57:30;100080.09;;;29.51;32.81
56630;BME280;42502;40.732;-74.254;2023-04-16T04:59:31;100085.81;;;29.51;32.91
56630;BME280;42502;40.732;-74.254;2023-04-16T05:01:32;100083.38;;;29.50;32.91
56630;BME280;42502;40.732;-74.254;2023-04-16T05:03:33;100099.66;;;29.49;32.96
56630;BME280;42502;40.732;-74.254;2023-04-16T05:05:34;100106.59;;;29.48;32.75
56630;BME280;42502;40.732;-74.254;2023-04-16T05:07:35;100102.94;;;29.48;32.60
56630;BME280;42502;40.732;-74.254;2023-04-16T05:09:36;100098.47;;;29.47;32.62
56630;BME280;42502;40.732;-74.254;2023-04-16T05:11:37;100108.28;;;29.46;32.54
56630;BME280;42502;40.732;-74.254;2023-04-16T05:13:38;100115.19;;;29.45;32.54
56630;BME280;42502;40.732;-74.254;2023-04-16T05:15:39;100120.88;;;29.45;32.73
56630;BME280;42502;40.732;-74.254;2023-04-16T05:17:40;100117.63;;;29.42;32.52
56630;BME280;42502;40.732;-74.254;2023-04-16T05:19:41;100111.94;;;29.42;32.93
56630;BME280;42502;40.732;-74.254;2023-04-16T05:21:42;100110.34;;;29.41;33.00
56630;BME280;42502;40.732;-74.254;2023-04-16T05:23:43;100121.72;;;29.41;32.76
56630;BME280;42502;40.732;-74.254;2023-04-16T05:25:44;100135.13;;;29.41;32.58
56630;BME280;42502;40.732;-74.254;2023-04-16T05:27:44;100129.88;;;29.39;32.68
56630;BME280;42502;40.732;-74.254;2023-04-16T05:29:45;100135.56;;;29.39;32.78
56630;BME280;42502;40.732;-74.254;2023-04-16T05:31:46;100153.06;;;29.38;32.53
56630;BME280;42502;40.732;-74.254;2023-04-16T05:33:47;100154.31;;;29.37;32.96
56630;BME280;42502;40.732;-74.254;2023-04-16T05:35:48;100156.34;;;29.36;32.52
56630;BME280;42502;40.732;-74.254;2023-04-16T05:37:49;100159.63;;;29.35;32.70
56630;BME280;42502;40.732;-74.254;2023-04-16T05:39:49;100159.63;;;29.35;32.52
56630;BME280;42502;40.732;-74.254;2023-04-16T05:41:50;100172.25;;;29.34;32.94
56630;BME280;42502;40.732;-74.254;2023-04-16T05:43:51;100175.53;;;29.32;32.72
56630;BME280;42502;40.732;-74.254;2023-04-16T05:45:52;100174.69;;;29.32;32.63
56630;BME280;42502;40.732;-74.254;2023-04-16T05:47:53;100179.59;;;29.31;33.08
56630;BME280;42502;40.732;-74.254;2023-04-16T05:49:54;100182.88;;;29.30;32.89
56630;BME280;42502;40.732;-74.254;2023-04-16T05:51:54;100182.06;;;29.29;32.96
56630;BME280;42502;40.732;-74.254;2023-04-16T05:53:55;100171.13;;;29.28;32.93
56630;BME280;42502;40.732;-74.254;2023-04-16T05:55:56;100160.16;;;29.26;33.28
56630;BME280;42502;40.732;-74.254;2023-04-16T05:57:57;100165.03;;;29.26;33.01
56630;BME280;42502;40.732;-74.254;2023-04-16T05:59:58;100151.66;;;29.22;33.00
56630;BME280;42502;40.732;-74.254;2023-04-16T06:01:59;100155.34;;;29.23;33.15
56630;BME280;42502;40.732;-74.254;2023-04-16T06:04:00;100148.81;;;29.22;33.31
56630;BME280;42502;40.732;-74.254;2023-04-16T06:06:00;100150.47;;;29.20;33.06
56630;BME280;42502;40.732;-74.254;2023-04-16T06:08:01;100142.75;;;29.20;33.21
56630;BME280;42502;40.732;-74.254;2023-04-16T06:10:02;100142.38;;;29.18;32.90
56630;BME280;42502;40.732;-74.254;2023-04-16T06:12:03;100145.63;;;29.17;32.72
56630;BME280;42502;40.732;-74.254;2023-04-16T06:14:04;100144.00;;;29.16;33.13
56630;BME280;42502;40.732;-74.254;2023-04-16T06:16:05;100136.72;;;29.15;32.69
56630;BME280;42502;40.732;-74.254;2023-04-16T06:18:06;100138.75;;;29.14;32.73
56630;BME280;42502;40.732;-74.254;2023-04-16T06:20:07;100137.13;;;29.13;32.74
56630;BME280;42502;40.732;-74.254;2023-04-16T06:22:08;100146.88;;;29.12;32.70
56630;BME280;42502;40.732;-74.254;2023-04-16T06:24:09;100148.13;;;29.11;32.86
56630;BME280;42502;40.732;-74.254;2023-04-16T06:26:10;100147.31;;;29.11;32.49
56630;BME280;42502;40.732;-74.254;2023-04-16T06:28:11;100147.75;;;29.09;32.52
56630;BME280;42502;40.732;-74.254;2023-04-16T06:30:13;100135.56;;;29.09;32.54
56630;BME280;42502;40.732;-74.254;2023-04-16T06:32:15;100133.16;;;29.07;32.76
56630;BME280;42502;40.732;-74.254;2023-04-16T06:34:16;100133.16;;;29.07;32.75
56630;BME280;42502;40.732;-74.254;2023-04-16T06:36:17;100136.06;;;29.03;32.34
56630;BME280;42502;40.732;-74.254;2023-04-16T06:38:18;100152.69;;;29.05;32.91
56630;BME280;42502;40.732;-74.254;2023-04-16T06:40:19;100157.97;;;29.03;32.79
56630;BME280;42502;40.732;-74.254;2023-04-16T06:42:20;100157.19;;;29.02;32.86
56630;BME280;42502;40.732;-74.254;2023-04-16T06:44:20;100167.34;;;29.00;32.40
56630;BME280;42502;40.732;-74.254;2023-04-16T06:46:21;100166.56;;;28.99;32.34
56630;BME280;42502;40.732;-74.254;2023-04-16T06:48:22;100158.03;;;28.99;32.41
56630;BME280;42502;40.732;-74.254;2023-04-16T06:50:26;100148.72;;;28.95;32.79
56630;BME280;42502;40.732;-74.254;2023-04-16T06:52:28;100142.63;;;28.97;32.26
56630;BME280;42502;40.732;-74.254;2023-04-16T06:54:29;100141.81;;;28.96;32.46
56630;BME280;42502;40.732;-74.254;2023-04-16T06:56:30;100142.25;;;28.95;32.36
56630;BME280;42502;40.732;-74.254;2023-04-16T06:58:31;100139.41;;;28.95;32.66
56630;BME280;42502;40.732;-74.254;2023-04-16T07:00:32;100130.88;;;28.95;32.75
56630;BME280;42502;40.732;-74.254;2023-04-16T07:02:33;100130.09;;;28.94;32.48
56630;BME280;42502;40.732;-74.254;2023-04-16T07:04:34;100119.94;;;28.93;32.57
56630;BME280;42502;40.732;-74.254;2023-04-16T07:06:35;100110.63;;;28.93;32.73
56630;BME280;42502;40.732;-74.254;2023-04-16T07:08:36;100114.69;;;28.92;32.51
56630;BME280;42502;40.732;-74.254;2023-04-16T07:10:37;100107.38;;;28.91;32.89
56630;BME280;42502;40.732;-74.254;2023-04-16T07:12:38;100102.16;;;28.85;32.55
56630;BME280;42502;40.732;-74.254;2023-04-16T07:14:39;100109.84;;;28.88;32.59
56630;BME280;42502;40.732;-74.254;2023-04-16T07:16:40;100104.59;;;28.87;32.53
56630;BME280;42502;40.732;-74.254;2023-04-16T07:18:41;100101.75;;;28.87;32.84
56630;BME280;42502;40.732;-74.254;2023-04-16T07:20:42;100097.28;;;28.86;32.74
56630;BME280;42502;40.732;-74.254;2023-04-16T07:22:43;100095.69;;;28.85;32.84
56630;BME280;42502;40.732;-74.254;2023-04-16T07:24:44;100105.00;;;28.85;32.77
56630;BME280;42502;40.732;-74.254;2023-04-16T07:26:45;100089.59;;;28.83;32.81
56630;BME280;42502;40.732;-74.254;2023-04-16T07:28:46;100085.97;;;28.82;32.53
56630;BME280;42502;40.732;-74.254;2023-04-16T07:30:47;100093.66;;;28.82;32.89
56630;BME280;42502;40.732;-74.254;2023-04-16T07:32:47;100095.72;;;28.81;32.93
56630;BME280;42502;40.732;-74.254;2023-04-16T07:34:48;100088.41;;;28.80;32.63
56630;BME280;42502;40.732;-74.254;2023-04-16T07:36:49;100093.28;;;28.80;32.86
56630;BME280;42502;40.732;-74.254;2023-04-16T07:38:50;100085.19;;;28.78;32.55
56630;BME280;42502;40.732;-74.254;2023-04-16T07:40:51;100073.81;;;28.78;32.37
56630;BME280;42502;40.732;-74.254;2023-04-16T07:42:52;100078.31;;;28.76;32.48
56630;BME280;42502;40.732;-74.254;2023-04-16T07:44:54;100079.56;;;28.75;32.96
56630;BME280;42502;40.732;-74.254;2023-04-16T07:46:55;100079.56;;;28.75;32.59
56630;BME280;42502;40.732;-74.254;2023-04-16T07:48:55;100078.75;;;28.74;32.42
56630;BME280;42502;40.732;-74.254;2023-04-16T07:50:56;100071.06;;;28.71;32.54
56630;BME280;42502;40.732;-74.254;2023-04-16T07:52:57;100079.59;;;28.71;32.50
56630;BME280;42502;40.732;-74.254;2023-04-16T07:54:58;100064.97;;;28.73;32.45
56630;BME280;42502;40.732;-74.254;2023-04-16T07:56:59;100069.06;;;28.71;32.39
56630;BME280;42502;40.732;-74.254;2023-04-16T07:59:00;100067.50;;;28.67;32.60
56630;BME280;42502;40.732;-74.254;2023-04-16T08:01:01;100060.56;;;28.68;32.55
56630;BME280;42502;40.732;-74.254;2023-04-16T08:03:02;100056.91;;;28.67;32.90
56630;BME280;42502;40.732;-74.254;2023-04-16T08:05:04;100048.03;;;28.65;32.45
56630;BME280;42502;40.732;-74.254;2023-04-16T08:07:05;100059.38;;;28.65;32.76
56630;BME280;42502;40.732;-74.254;2023-04-16T08:09:06;100058.56;;;28.65;32.55
56630;BME280;42502;40.732;-74.254;2023-04-16T08:11:07;100062.66;;;28.64;32.27
56630;BME280;42502;40.732;-74.254;2023-04-16T08:13:08;100057.41;;;28.62;32.49
56630;BME280;42502;40.732;-74.254;2023-04-16T08:15:09;100060.25;;;28.62;32.34
56630;BME280;42502;40.732;-74.254;2023-04-16T08:17:11;100065.09;;;28.62;32.83
56630;BME280;42502;40.732;-74.254;2023-04-16T08:19:12;100062.25;;;28.62;32.74
56630;BME280;42502;40.732;-74.254;2023-04-16T08:21:12;100057.81;;;28.61;32.55
56630;BME280;42502;40.732;-74.254;2023-04-16T08:23:13;100052.97;;;28.58;32.58
56630;BME280;42502;40.732;-74.254;2023-04-16T08:25:14;100060.25;;;28.59;32.74
56630;BME280;42502;40.732;-74.254;2023-04-16T08:27:15;100050.13;;;28.58;32.39
56630;BME280;42502;40.732;-74.254;2023-04-16T08:29:16;100050.56;;;28.56;32.43
56630;BME280;42502;40.732;-74.254;2023-04-16T08:31:17;100056.22;;;28.56;32.44
56630;BME280;42502;40.732;-74.254;2023-04-16T08:33:18;100064.34;;;28.54;32.34
56630;BME280;42502;40.732;-74.254;2023-04-16T08:35:19;100057.88;;;28.53;32.19
56630;BME280;42502;40.732;-74.254;2023-04-16T08:37:20;100056.25;;;28.52;32.59
56630;BME280;42502;40.732;-74.254;2023-04-16T08:39:21;100056.69;;;28.51;32.38
56630;BME280;42502;40.732;-74.254;2023-04-16T08:41:23;100071.72;;;28.51;32.60
56630;BME280;42502;40.732;-74.254;2023-04-16T08:43:24;100057.91;;;28.50;32.58
56630;BME280;42502;40.732;-74.254;2023-04-16T08:45:26;100059.53;;;28.51;32.70
56630;BME280;42502;40.732;-74.254;2023-04-16T08:47:28;100045.78;;;28.46;32.28
56630;BME280;42502;40.732;-74.254;2023-04-16T08:49:35;100038.50;;;28.45;32.18
56630;BME280;42502;40.732;-74.254;2023-04-16T08:51:41;100053.91;;;28.47;32.23
56630;BME280;42502;40.732;-74.254;2023-04-16T08:53:58;100052.69;;;28.45;32.48
56630;BME280;42502;40.732;-74.254;2023-04-16T08:56:03;100049.44;;;28.46;32.40
56630;BME280;42502;40.732;-74.254;2023-04-16T08:58:13;100046.66;;;28.43;32.58
56630;BME280;42502;40.732;-74.254;2023-04-16T09:00:15;100045.78;;;28.46;32.05
56630;BME280;42502;40.732;-74.254;2023-04-16T09:02:16;100048.25;;;28.44;32.78
56630;BME280;42502;40.732;-74.254;2023-04-16T09:04:18;100036.09;;;28.43;32.59
56630;BME280;42502;40.732;-74.254;2023-04-16T09:06:19;100040.53;;;28.44;32.36
56630;BME280;42502;40.732;-74.254;2023-04-16T09:08:20;100041.75;;;28.43;32.71
56630;BME280;42502;40.732;-74.254;2023-04-16T09:10:21;100042.97;;;28.42;32.56
56630;BME280;42502;40.732;-74.254;2023-04-16T09:12:23;100053.97;;;28.40;32.34
56630;BME280;42502;40.732;-74.254;2023-04-16T09:14:24;100052.75;;;28.41;32.48
56630;BME280;42502;40.732;-74.254;2023-04-16T09:16:26;100053.97;;;28.40;32.53
56630;BME280;42502;40.732;-74.254;2023-04-16T09:18:30;100050.78;;;28.34;32.29
56630;BME280;42502;40.732;-74.254;2023-04-16T09:20:31;100052.34;;;28.39;32.47
56630;BME280;42502;40.732;-74.254;2023-04-16T09:22:32;100064.97;;;28.38;32.57
56630;BME280;42502;40.732;-74.254;2023-04-16T09:24:33;100061.31;;;28.38;32.73
56630;BME280;42502;40.732;-74.254;2023-04-16T09:26:35;100064.19;;;28.34;32.81
56630;BME280;42502;40.732;-74.254;2023-04-16T09:28:44;100067.41;;;28.36;32.65
56630;BME280;42502;40.732;-74.254;2023-04-16T09:30:45;100062.97;;;28.35;32.62
56630;BME280;42502;40.732;-74.254;2023-04-16T09:32:47;100069.06;;;28.33;32.75
56630;BME280;42502;40.732;-74.254;2023-04-16T09:35:00;100066.25;;;28.30;32.44
56630;BME280;42502;40.732;-74.254;2023-04-16T09:37:14;100076.41;;;28.31;32.73
56630;BME280;42502;40.732;-74.254;2023-04-16T09:39:19;100082.88;;;28.31;32.94
56630;BME280;42502;40.732;-74.254;2023-04-16T09:41:24;100091.81;;;28.30;32.46
56630;BME280;42502;40.732;-74.254;2023-04-16T09:43:26;100096.28;;;28.31;32.48
56630;BME280;42502;40.732;-74.254;2023-04-16T09:45:30;100100.34;;;28.30;32.53
56630;BME280;42502;40.732;-74.254;2023-04-16T09:47:40;100104.44;;;28.29;32.90
56630;BME280;42502;40.732;-74.254;2023-04-16T09:49:41;100109.28;;;28.28;32.81
56630;BME280;42502;40.732;-74.254;2023-04-16T09:51:44;100111.31;;;28.28;32.91
56630;BME280;42502;40.732;-74.254;2023-04-16T09:53:46;100119.06;;;28.27;32.68
56630;BME280;42502;40.732;-74.254;2023-04-16T09:55:46;100109.72;;;28.27;32.62
56630;BME280;42502;40.732;-74.254;2023-04-16T09:57:47;100112.16;;;28.25;32.69
56630;BME280;42502;40.732;-74.254;2023-04-16T10:00:02;100110.97;;;28.22;32.53
56630;BME280;42502;40.732;-74.254;2023-04-16T10:02:07;100116.22;;;28.24;33.12
56630;BME280;42502;40.732;-74.254;2023-04-16T10:04:08;100114.22;;;28.24;32.86
56630;BME280;42502;40.732;-74.254;2023-04-16T10:06:17;100118.28;;;28.23;32.79
56630;BME280;42502;40.732;-74.254;2023-04-16T10:08:19;100139.78;;;28.24;33.14
56630;BME280;42502;40.732;-74.254;2023-04-16T10:10:20;100122.38;;;28.18;33.00
56630;BME280;42502;40.732;-74.254;2023-04-16T10:12:21;100120.31;;;28.23;33.12
56630;BME280;42502;40.732;-74.254;2023-04-16T10:14:22;100122.75;;;28.21;32.71
56630;BME280;42502;40.732;-74.254;2023-04-16T10:16:23;100123.97;;;28.19;32.66
56630;BME280;42502;40.732;-74.254;2023-04-16T10:18:26;100119.13;;;28.20;33.18